Hagatna, GU

3:04 AM ChST on March 30, 2017 (GMT +1000)
Maite | | Change Station

Elev 140 ft 13.48 °N, 144.76 °E | Updated 8 seconds ago

Rain
Rain
75.5 °F
Feels Like 75 °F
N
10.0
Wind Variable Wind from ESE
Gusts 21.0 mph

Today
High -- | Low -- °F
--% Chance of Precip.
Yesterday
High -- | Low -- °F
Precip. -- in
Pressure 29.98 in
Visibility 3.0 miles
Clouds Scattered Clouds 1100 ft
Mostly Cloudy 2600 ft
Overcast 7000 ft
Heat Index 75 °F
Dew Point 73 °F
Humidity 93%
Rainfall 0.09 in
Snow Depth Not available.
6:18 AM 6:32 PM
Waxing Crescent, 4% visible
SPECI PGUM 291658Z 09016G22KT 3SM -RA BR SCT011 BKN026 OVC070 24/24 A2998
Pressure 29.98 in
Visibility 3.0 miles
Clouds Scattered Clouds 1100 ft
Mostly Cloudy 2600 ft
Overcast 7000 ft
Heat Index 75 °F
Dew Point 73 °F
Humidity 93%
Rainfall 0.09 in
Snow Depth Not available.
6:18 AM 6:32 PM
Waxing Crescent, 4% visible
SPECI PGUM 291658Z 09016G22KT 3SM -RA BR SCT011 BKN026 OVC070 24/24 A2998

Get Severe Weather Alerts

Thanks for signing up!

Be on the lookout for a verification email in your inbox.

You'll start receiving the daily forecast at 8 AM.

×

10-Day Weather Forecast

Almanac

Astronomy

Mar. 30, 2017 Rise Set
Actual Time
Civil Twilight
Nautical Twilight
Astronomical Twilight
Moon
Length of Visible Light
Length of Day
Tomorrow will be .
, % of the Moon is Illuminated

Today's Extremes

State Highs State Lows

Community

WunderPhotos

Upload Photos

1,962,540 photos uploaded!

WunderBlog® & News

Nearby

Air Quality

  Air Quality AQ Index Pollutant
Not available.

Snow Depth

Station Depth Elevation

Earthquake Activity

City Distance Mag. Time & Date
Minimum magnitude displayed is 2.5.

Earthquake Activity

City Distance Mag. Time & Date
Minimum magnitude displayed is 2.5.

Coastal Water Temperatures

Place Temperature

Stations

Nearby Weather Stations

Station Location Temp. Windchill Dew Point Humidity Wind Precip. Elev Updated Type
                   

Watches & Warnings

There are currently no watches in effect.